Highest pressure

Not for real navigation. The accuracy of this data is not assured See disclaimer for more information



ICAO NAME COUNTRY WIND Kt GUST Kt VIS m TEMP/DEW C BARO METAR
WABB Biak / Mokmer Indonesia 8 0 9999 11/11 59.65 WABB 181200Z 07008KT 9999 VCTS FEW017CB FEW018 11/11 Q2020 NOSIG
KMYP Salida Mountain, Monarch Pass CO United States 12 16 16000 8/4 30.76 KMYP 181214Z AUTO 27012G16KT 10SM OVC120 08/04 A3076 RMK AO2 LTG NOOP SW AND W
KCPW Pagosa Springs, Wolf Creek Pas CO United States 4 0 16000 7/5 30.72 KCPW 181213Z AUTO 22004KT 10SM VCTS SCT042 07/05 A3072 RMK AO2 LTG NOOP NW
SLLP La Paz / Alto Bolivia 4 0 9999 3/-6 30.71 SLLP 181200Z 01004KT 9999 NSC 03/M06 Q1040
K0CO 0 0 16000 7/0 30.69 K0CO 181224Z AUTO 00000KT 10SM SCT100 07/00 A3069 RMK AO2 LTG NOOP N AND SW

Show more